sensor_id;sensor_type;location;lat;lon;timestamp;pressure;altitude;pressure_sealevel;temperature;humidity
52032;BME280;38044;45.148;39.604;2023-12-20T00:01:27;101857.88;;;6.08;93.28
52032;BME280;38044;45.148;39.604;2023-12-20T00:03:53;101857.19;;;6.13;92.95
52032;BME280;38044;45.148;39.604;2023-12-20T00:06:19;101855.88;;;6.03;92.90
52032;BME280;38044;45.148;39.604;2023-12-20T00:08:45;101854.72;;;5.99;92.89
52032;BME280;38044;45.148;39.604;2023-12-20T00:11:10;101845.78;;;5.94;93.07
52032;BME280;38044;45.148;39.604;2023-12-20T00:13:36;101859.91;;;5.94;92.99
52032;BME280;38044;45.148;39.604;2023-12-20T00:16:02;101855.47;;;5.88;93.50
52032;BME280;38044;45.148;39.604;2023-12-20T00:18:28;101842.00;;;5.83;93.92
52032;BME280;38044;45.148;39.604;2023-12-20T00:20:54;101848.97;;;5.84;94.49
52032;BME280;38044;45.148;39.604;2023-12-20T00:23:20;101834.69;;;5.78;94.41
52032;BME280;38044;45.148;39.604;2023-12-20T00:25:46;101839.31;;;5.83;94.35
52032;BME280;38044;45.148;39.604;2023-12-20T00:28:12;101838.28;;;5.84;94.39
52032;BME280;38044;45.148;39.604;2023-12-20T00:30:38;101844.41;;;5.73;93.77
52032;BME280;38044;45.148;39.604;2023-12-20T00:33:04;101839.28;;;5.41;93.31
52032;BME280;38044;45.148;39.604;2023-12-20T00:35:30;101840.75;;;5.55;93.57
52032;BME280;38044;45.148;39.604;2023-12-20T00:37:55;101833.50;;;5.44;94.11
52032;BME280;38044;45.148;39.604;2023-12-20T00:40:21;101856.66;;;5.43;93.89
52032;BME280;38044;45.148;39.604;2023-12-20T00:42:47;101847.75;;;5.38;93.60
52032;BME280;38044;45.148;39.604;2023-12-20T00:45:13;101836.53;;;5.48;94.11
52032;BME280;38044;45.148;39.604;2023-12-20T00:47:40;101837.38;;;5.30;94.37
52032;BME280;38044;45.148;39.604;2023-12-20T00:50:06;101846.13;;;5.18;94.14
52032;BME280;38044;45.148;39.604;2023-12-20T00:52:32;101829.69;;;5.03;94.13
52032;BME280;38044;45.148;39.604;2023-12-20T00:54:58;101835.47;;;5.18;94.42
52032;BME280;38044;45.148;39.604;2023-12-20T00:57:24;101828.88;;;5.21;95.11
52032;BME280;38044;45.148;39.604;2023-12-20T00:59:50;101838.41;;;5.29;94.79
52032;BME280;38044;45.148;39.604;2023-12-20T01:02:16;101836.88;;;5.21;94.27
52032;BME280;38044;45.148;39.604;2023-12-20T01:04:43;101835.06;;;5.15;93.90
52032;BME280;38044;45.148;39.604;2023-12-20T01:07:09;101830.44;;;5.10;94.26
52032;BME280;38044;45.148;39.604;2023-12-20T01:09:34;101833.25;;;4.97;94.22
52032;BME280;38044;45.148;39.604;2023-12-20T01:12:00;101836.78;;;4.91;94.32
52032;BME280;38044;45.148;39.604;2023-12-20T01:14:26;101831.91;;;5.06;95.20
52032;BME280;38044;45.148;39.604;2023-12-20T01:16:52;101836.94;;;5.14;94.85
52032;BME280;38044;45.148;39.604;2023-12-20T01:19:18;101839.03;;;5.12;94.58
52032;BME280;38044;45.148;39.604;2023-12-20T01:21:44;101820.81;;;4.91;93.61
52032;BME280;38044;45.148;39.604;2023-12-20T01:24:09;101817.41;;;4.84;93.17
52032;BME280;38044;45.148;39.604;2023-12-20T01:26:35;101830.41;;;4.92;93.17
52032;BME280;38044;45.148;39.604;2023-12-20T01:29:01;101834.50;;;4.94;93.70
52032;BME280;38044;45.148;39.604;2023-12-20T01:31:27;101833.41;;;4.84;93.60
52032;BME280;38044;45.148;39.604;2023-12-20T01:33:53;101842.13;;;4.91;93.72
52032;BME280;38044;45.148;39.604;2023-12-20T01:36:19;101841.53;;;4.89;93.58
52032;BME280;38044;45.148;39.604;2023-12-20T01:38:45;101831.03;;;4.94;93.65
52032;BME280;38044;45.148;39.604;2023-12-20T01:41:11;101848.03;;;5.11;93.30
52032;BME280;38044;45.148;39.604;2023-12-20T01:43:37;101846.69;;;5.20;93.07
52032;BME280;38044;45.148;39.604;2023-12-20T01:46:03;101822.59;;;5.15;92.76
52032;BME280;38044;45.148;39.604;2023-12-20T01:48:29;101844.53;;;5.29;92.32
52032;BME280;38044;45.148;39.604;2023-12-20T01:50:59;101837.91;;;5.20;92.47
52032;BME280;38044;45.148;39.604;2023-12-20T01:53:25;101838.44;;;5.10;91.47
52032;BME280;38044;45.148;39.604;2023-12-20T01:55:54;101844.88;;;5.21;91.11
52032;BME280;38044;45.148;39.604;2023-12-20T01:58:21;101845.09;;;5.19;91.66
52032;BME280;38044;45.148;39.604;2023-12-20T02:00:48;101839.91;;;5.06;90.99
52032;BME280;38044;45.148;39.604;2023-12-20T02:03:14;101846.63;;;5.09;90.98
52032;BME280;38044;45.148;39.604;2023-12-20T02:05:41;101845.81;;;5.08;91.11
52032;BME280;38044;45.148;39.604;2023-12-20T02:08:07;101847.44;;;4.91;90.18
52032;BME280;38044;45.148;39.604;2023-12-20T02:10:33;101839.00;;;4.76;89.01
52032;BME280;38044;45.148;39.604;2023-12-20T02:12:59;101837.19;;;4.51;89.32
52032;BME280;38044;45.148;39.604;2023-12-20T02:15:25;101835.84;;;4.42;89.56
52032;BME280;38044;45.148;39.604;2023-12-20T02:17:51;101845.72;;;4.35;89.98
52032;BME280;38044;45.148;39.604;2023-12-20T02:20:17;101834.59;;;4.19;90.39
52032;BME280;38044;45.148;39.604;2023-12-20T02:22:43;101843.00;;;4.16;91.08
52032;BME280;38044;45.148;39.604;2023-12-20T02:25:09;101832.44;;;4.10;91.02
52032;BME280;38044;45.148;39.604;2023-12-20T02:27:35;101809.22;;;3.92;90.69
52032;BME280;38044;45.148;39.604;2023-12-20T02:30:01;101832.94;;;3.93;90.13
52032;BME280;38044;45.148;39.604;2023-12-20T02:32:27;101833.00;;;3.87;90.66
52032;BME280;38044;45.148;39.604;2023-12-20T02:34:54;101836.66;;;3.86;91.07
52032;BME280;38044;45.148;39.604;2023-12-20T02:37:20;101835.72;;;3.73;91.14
52032;BME280;38044;45.148;39.604;2023-12-20T02:39:46;101833.13;;;3.67;91.14
52032;BME280;38044;45.148;39.604;2023-12-20T02:42:12;101820.69;;;3.54;91.20
52032;BME280;38044;45.148;39.604;2023-12-20T02:44:38;101825.41;;;3.52;91.52
52032;BME280;38044;45.148;39.604;2023-12-20T02:47:04;101827.91;;;3.47;91.78
52032;BME280;38044;45.148;39.604;2023-12-20T02:49:30;101806.75;;;3.27;91.89
52032;BME280;38044;45.148;39.604;2023-12-20T02:51:56;101814.88;;;3.32;92.26
52032;BME280;38044;45.148;39.604;2023-12-20T02:54:22;101822.03;;;3.38;92.67
52032;BME280;38044;45.148;39.604;2023-12-20T02:56:48;101822.22;;;3.36;92.69
52032;BME280;38044;45.148;39.604;2023-12-20T02:59:14;101807.56;;;3.27;92.43
52032;BME280;38044;45.148;39.604;2023-12-20T03:01:45;101826.50;;;3.44;92.77
52032;BME280;38044;45.148;39.604;2023-12-20T03:04:11;101823.84;;;3.37;92.14
52032;BME280;38044;45.148;39.604;2023-12-20T03:06:38;101805.94;;;3.20;91.91
52032;BME280;38044;45.148;39.604;2023-12-20T03:09:04;101829.84;;;3.26;91.64
52032;BME280;38044;45.148;39.604;2023-12-20T03:11:30;101828.84;;;3.14;91.33
52032;BME280;38044;45.148;39.604;2023-12-20T03:13:56;101823.13;;;3.17;92.09
52032;BME280;38044;45.148;39.604;2023-12-20T03:16:23;101827.59;;;3.23;91.98
52032;BME280;38044;45.148;39.604;2023-12-20T03:18:49;101823.06;;;3.30;91.75
52032;BME280;38044;45.148;39.604;2023-12-20T03:21:15;101830.81;;;3.38;92.04
52032;BME280;38044;45.148;39.604;2023-12-20T03:23:41;101816.13;;;3.29;92.30
52032;BME280;38044;45.148;39.604;2023-12-20T03:26:07;101824.66;;;3.45;92.05
52032;BME280;38044;45.148;39.604;2023-12-20T03:28:34;101833.56;;;3.57;91.77
52032;BME280;38044;45.148;39.604;2023-12-20T03:31:00;101821.34;;;3.49;90.87
52032;BME280;38044;45.148;39.604;2023-12-20T03:33:28;101827.88;;;3.53;91.30
52032;BME280;38044;45.148;39.604;2023-12-20T03:35:57;101823.94;;;3.63;91.51
52032;BME280;38044;45.148;39.604;2023-12-20T03:38:22;101840.00;;;3.74;91.20
52032;BME280;38044;45.148;39.604;2023-12-20T03:40:51;101823.13;;;3.62;90.59
52032;BME280;38044;45.148;39.604;2023-12-20T03:43:17;101826.81;;;3.54;90.62
52032;BME280;38044;45.148;39.604;2023-12-20T03:45:43;101837.25;;;3.56;90.73
52032;BME280;38044;45.148;39.604;2023-12-20T03:48:09;101813.22;;;3.37;90.46
52032;BME280;38044;45.148;39.604;2023-12-20T03:50:35;101847.00;;;3.30;90.19
52032;BME280;38044;45.148;39.604;2023-12-20T03:53:01;101838.06;;;3.18;90.44
52032;BME280;38044;45.148;39.604;2023-12-20T03:55:27;101842.38;;;3.06;90.37
52032;BME280;38044;45.148;39.604;2023-12-20T03:57:53;101837.06;;;3.06;90.33
52032;BME280;38044;45.148;39.604;2023-12-20T04:00:19;101836.28;;;2.99;90.77
52032;BME280;38044;45.148;39.604;2023-12-20T04:02:45;101833.00;;;2.97;91.30
52032;BME280;38044;45.148;39.604;2023-12-20T04:05:11;101836.28;;;2.85;91.23
52032;BME280;38044;45.148;39.604;2023-12-20T04:07:37;101819.19;;;2.68;90.93
52032;BME280;38044;45.148;39.604;2023-12-20T04:10:04;101824.69;;;2.73;91.41
52032;BME280;38044;45.148;39.604;2023-12-20T04:12:30;101828.97;;;2.74;91.40
52032;BME280;38044;45.148;39.604;2023-12-20T04:14:57;101840.41;;;2.81;90.94
52032;BME280;38044;45.148;39.604;2023-12-20T04:17:23;101836.34;;;2.72;90.42
52032;BME280;38044;45.148;39.604;2023-12-20T04:19:49;101848.19;;;2.69;90.75
52032;BME280;38044;45.148;39.604;2023-12-20T04:22:16;101835.13;;;2.55;90.65
52032;BME280;38044;45.148;39.604;2023-12-20T04:24:42;101850.22;;;2.54;90.12
52032;BME280;38044;45.148;39.604;2023-12-20T04:27:08;101839.81;;;2.46;90.20
52032;BME280;38044;45.148;39.604;2023-12-20T04:29:34;101834.72;;;2.31;90.43
52032;BME280;38044;45.148;39.604;2023-12-20T04:32:00;101839.22;;;2.37;90.47
52032;BME280;38044;45.148;39.604;2023-12-20T04:34:26;101833.91;;;2.37;90.86
52032;BME280;38044;45.148;39.604;2023-12-20T04:36:53;101829.44;;;2.24;90.59
52032;BME280;38044;45.148;39.604;2023-12-20T04:39:18;101839.03;;;2.39;90.67
52032;BME280;38044;45.148;39.604;2023-12-20T04:41:44;101836.38;;;2.32;90.73
52032;BME280;38044;45.148;39.604;2023-12-20T04:44:11;101821.25;;;2.19;90.08
52032;BME280;38044;45.148;39.604;2023-12-20T04:46:36;101853.09;;;2.26;90.06
52032;BME280;38044;45.148;39.604;2023-12-20T04:49:02;101840.03;;;2.05;90.04
52032;BME280;38044;45.148;39.604;2023-12-20T04:51:28;101851.47;;;2.18;90.34
52032;BME280;38044;45.148;39.604;2023-12-20T04:53:54;101855.53;;;2.14;90.00
52032;BME280;38044;45.148;39.604;2023-12-20T04:56:20;101842.28;;;2.01;89.56
52032;BME280;38044;45.148;39.604;2023-12-20T04:58:46;101853.50;;;2.03;89.70
52032;BME280;38044;45.148;39.604;2023-12-20T05:01:12;101857.97;;;2.02;90.26
52032;BME280;38044;45.148;39.604;2023-12-20T05:03:38;101860.44;;;2.11;90.78
52032;BME280;38044;45.148;39.604;2023-12-20T05:06:04;101867.19;;;2.07;89.78
52032;BME280;38044;45.148;39.604;2023-12-20T05:08:30;101862.03;;;1.85;89.59
52032;BME280;38044;45.148;39.604;2023-12-20T05:10:56;101849.00;;;1.90;90.30
52032;BME280;38044;45.148;39.604;2023-12-20T05:13:22;101860.66;;;2.22;90.12
52032;BME280;38044;45.148;39.604;2023-12-20T05:15:48;101845.13;;;2.66;89.29
52032;BME280;38044;45.148;39.604;2023-12-20T05:18:14;101860.94;;;3.19;87.53
52032;BME280;38044;45.148;39.604;2023-12-20T05:20:40;101866.78;;;3.34;85.54
52032;BME280;38044;45.148;39.604;2023-12-20T05:23:06;101874.88;;;3.59;84.28
52032;BME280;38044;45.148;39.604;2023-12-20T05:25:32;101873.16;;;3.78;83.28
52032;BME280;38044;45.148;39.604;2023-12-20T05:27:58;101885.53;;;3.98;82.07
52032;BME280;38044;45.148;39.604;2023-12-20T05:30:24;101881.38;;;4.34;81.62
52032;BME280;38044;45.148;39.604;2023-12-20T05:32:50;101885.91;;;4.77;79.53
52032;BME280;38044;45.148;39.604;2023-12-20T05:35:16;101886.69;;;5.20;78.40
52032;BME280;38044;45.148;39.604;2023-12-20T05:37:43;101888.66;;;5.62;76.31
52032;BME280;38044;45.148;39.604;2023-12-20T05:40:09;101877.38;;;5.78;75.74
52032;BME280;38044;45.148;39.604;2023-12-20T05:42:37;101890.47;;;5.98;74.42
52032;BME280;38044;45.148;39.604;2023-12-20T05:45:04;101884.84;;;6.30;73.03
52032;BME280;38044;45.148;39.604;2023-12-20T05:47:31;101872.00;;;6.50;71.85
52032;BME280;38044;45.148;39.604;2023-12-20T05:49:57;101872.69;;;6.81;70.83
52032;BME280;38044;45.148;39.604;2023-12-20T05:52:22;101874.63;;;7.50;70.18
52032;BME280;38044;45.148;39.604;2023-12-20T05:54:48;101854.34;;;8.11;67.89
52032;BME280;38044;45.148;39.604;2023-12-20T05:57:14;101872.88;;;9.02;65.71
52032;BME280;38044;45.148;39.604;2023-12-20T05:59:40;101885.34;;;9.57;62.69
52032;BME280;38044;45.148;39.604;2023-12-20T06:02:06;101883.22;;;10.13;61.21
52032;BME280;38044;45.148;39.604;2023-12-20T06:04:32;101865.75;;;10.43;59.88
52032;BME280;38044;45.148;39.604;2023-12-20T06:06:58;101865.69;;;10.75;58.10
52032;BME280;38044;45.148;39.604;2023-12-20T06:09:26;101868.91;;;11.30;58.01
52032;BME280;38044;45.148;39.604;2023-12-20T06:11:53;101876.03;;;11.67;56.71
52032;BME280;38044;45.148;39.604;2023-12-20T06:14:19;101875.03;;;12.29;56.16
52032;BME280;38044;45.148;39.604;2023-12-20T06:16:45;101875.06;;;12.39;54.16
52032;BME280;38044;45.148;39.604;2023-12-20T06:19:11;101862.50;;;11.41;55.43
52032;BME280;38044;45.148;39.604;2023-12-20T06:21:37;101877.59;;;10.15;59.04
52032;BME280;38044;45.148;39.604;2023-12-20T06:24:03;101869.19;;;9.52;61.31
52032;BME280;38044;45.148;39.604;2023-12-20T06:26:29;101856.81;;;10.05;60.78
52032;BME280;38044;45.148;39.604;2023-12-20T06:28:55;101871.91;;;11.34;58.37
52032;BME280;38044;45.148;39.604;2023-12-20T06:31:21;101866.16;;;12.13;55.38
52032;BME280;38044;45.148;39.604;2023-12-20T06:33:47;101861.22;;;12.82;54.84
52032;BME280;38044;45.148;39.604;2023-12-20T06:36:14;101857.53;;;13.38;52.88
52032;BME280;38044;45.148;39.604;2023-12-20T06:38:40;101865.31;;;13.89;51.60
52032;BME280;38044;45.148;39.604;2023-12-20T06:41:07;101861.66;;;14.09;50.68
52032;BME280;38044;45.148;39.604;2023-12-20T06:43:33;101869.06;;;14.27;50.24
52032;BME280;38044;45.148;39.604;2023-12-20T06:46:02;101854.38;;;14.38;50.17
52032;BME280;38044;45.148;39.604;2023-12-20T06:48:28;101849.38;;;14.22;49.40
52032;BME280;38044;45.148;39.604;2023-12-20T06:50:54;101860.00;;;14.42;50.26
52032;BME280;38044;45.148;39.604;2023-12-20T06:53:20;101861.06;;;14.46;49.40
52032;BME280;38044;45.148;39.604;2023-12-20T06:55:46;101862.22;;;14.40;49.24
52032;BME280;38044;45.148;39.604;2023-12-20T06:58:11;101841.00;;;14.52;50.60
52032;BME280;38044;45.148;39.604;2023-12-20T07:00:37;101860.66;;;14.87;49.52
52032;BME280;38044;45.148;39.604;2023-12-20T07:03:03;101861.47;;;15.12;48.94
52032;BME280;38044;45.148;39.604;2023-12-20T07:05:29;101857.53;;;15.23;49.11
52032;BME280;38044;45.148;39.604;2023-12-20T07:07:55;101872.22;;;15.41;48.79
52032;BME280;38044;45.148;39.604;2023-12-20T07:10:21;101872.63;;;15.48;49.58
52032;BME280;38044;45.148;39.604;2023-12-20T07:12:47;101867.38;;;15.57;49.34
52032;BME280;38044;45.148;39.604;2023-12-20T07:15:14;101874.75;;;15.75;47.67
52032;BME280;38044;45.148;39.604;2023-12-20T07:17:40;101868.06;;;15.86;48.03
52032;BME280;38044;45.148;39.604;2023-12-20T07:20:06;101849.94;;;16.01;47.95
52032;BME280;38044;45.148;39.604;2023-12-20T07:22:35;101879.00;;;16.47;47.91
52032;BME280;38044;45.148;39.604;2023-12-20T07:25:01;101872.25;;;16.91;47.28
52032;BME280;38044;45.148;39.604;2023-12-20T07:27:27;101867.31;;;17.06;47.41
52032;BME280;38044;45.148;39.604;2023-12-20T07:29:53;101871.63;;;17.21;46.57
52032;BME280;38044;45.148;39.604;2023-12-20T07:32:19;101868.63;;;17.23;47.05
52032;BME280;38044;45.148;39.604;2023-12-20T07:34:45;101854.09;;;17.27;46.16
52032;BME280;38044;45.148;39.604;2023-12-20T07:37:11;101858.94;;;17.30;47.00
52032;BME280;38044;45.148;39.604;2023-12-20T07:39:40;101851.84;;;17.57;46.86
52032;BME280;38044;45.148;39.604;2023-12-20T07:42:09;101852.06;;;17.47;45.75
52032;BME280;38044;45.148;39.604;2023-12-20T07:44:35;101854.72;;;17.10;47.08
52032;BME280;38044;45.148;39.604;2023-12-20T07:47:01;101839.13;;;17.16;46.87
52032;BME280;38044;45.148;39.604;2023-12-20T07:49:27;101851.91;;;17.29;47.64
52032;BME280;38044;45.148;39.604;2023-12-20T07:51:53;101840.84;;;17.12;47.78
52032;BME280;38044;45.148;39.604;2023-12-20T07:54:19;101834.81;;;17.15;47.42
52032;BME280;38044;45.148;39.604;2023-12-20T07:56:46;101823.53;;;17.22;47.54
52032;BME280;38044;45.148;39.604;2023-12-20T07:59:12;101824.94;;;17.19;48.08
52032;BME280;38044;45.148;39.604;2023-12-20T08:01:38;101833.56;;;17.35;46.75
52032;BME280;38044;45.148;39.604;2023-12-20T08:04:04;101816.69;;;17.24;47.23
52032;BME280;38044;45.148;39.604;2023-12-20T08:06:30;101820.50;;;17.37;48.01
52032;BME280;38044;45.148;39.604;2023-12-20T08:08:56;101823.59;;;17.67;46.62
52032;BME280;38044;45.148;39.604;2023-12-20T08:11:22;101816.63;;;17.97;47.66
52032;BME280;38044;45.148;39.604;2023-12-20T08:13:48;101819.53;;;18.23;46.65
52032;BME280;38044;45.148;39.604;2023-12-20T08:16:14;101805.81;;;18.37;47.27
52032;BME280;38044;45.148;39.604;2023-12-20T08:18:43;101807.19;;;18.57;45.70
52032;BME280;38044;45.148;39.604;2023-12-20T08:21:09;101798.44;;;18.68;46.85
52032;BME280;38044;45.148;39.604;2023-12-20T08:23:35;101790.56;;;18.67;46.38
52032;BME280;38044;45.148;39.604;2023-12-20T08:26:07;101794.97;;;18.94;45.27
52032;BME280;38044;45.148;39.604;2023-12-20T08:28:34;101787.91;;;18.76;44.90
52032;BME280;38044;45.148;39.604;2023-12-20T08:31:00;101788.13;;;18.65;45.40
52032;BME280;38044;45.148;39.604;2023-12-20T08:33:26;101784.53;;;18.79;45.48
52032;BME280;38044;45.148;39.604;2023-12-20T08:35:52;101787.41;;;18.74;44.24
52032;BME280;38044;45.148;39.604;2023-12-20T08:38:18;101780.59;;;18.62;44.29
52032;BME280;38044;45.148;39.604;2023-12-20T08:40:44;101785.84;;;18.50;44.43
52032;BME280;38044;45.148;39.604;2023-12-20T08:43:10;101776.09;;;18.49;46.11
52032;BME280;38044;45.148;39.604;2023-12-20T08:45:37;101770.97;;;18.56;45.26
52032;BME280;38044;45.148;39.604;2023-12-20T08:48:04;101759.16;;;18.61;45.28
52032;BME280;38044;45.148;39.604;2023-12-20T08:50:31;101761.91;;;18.69;43.57
52032;BME280;38044;45.148;39.604;2023-12-20T08:52:57;101756.84;;;18.45;45.42
52032;BME280;38044;45.148;39.604;2023-12-20T08:55:23;101758.00;;;18.53;45.66
52032;BME280;38044;45.148;39.604;2023-12-20T08:57:48;101723.84;;;18.38;45.69
52032;BME280;38044;45.148;39.604;2023-12-20T09:00:16;101740.06;;;18.52;46.04
52032;BME280;38044;45.148;39.604;2023-12-20T09:02:42;101718.28;;;18.52;44.36
52032;BME280;38044;45.148;39.604;2023-12-20T09:05:08;101723.56;;;18.49;45.49
52032;BME280;38044;45.148;39.604;2023-12-20T09:07:34;101712.44;;;18.28;45.68
52032;BME280;38044;45.148;39.604;2023-12-20T09:10:00;101696.00;;;18.01;46.76
52032;BME280;38044;45.148;39.604;2023-12-20T09:12:26;101718.97;;;17.87;46.06
52032;BME280;38044;45.148;39.604;2023-12-20T09:14:53;101713.66;;;17.59;47.38
52032;BME280;38044;45.148;39.604;2023-12-20T09:17:19;101713.72;;;17.45;47.46
52032;BME280;38044;45.148;39.604;2023-12-20T09:19:46;101710.78;;;17.33;48.60
52032;BME280;38044;45.148;39.604;2023-12-20T09:22:12;101707.50;;;17.45;48.77
52032;BME280;38044;45.148;39.604;2023-12-20T09:24:38;101694.16;;;17.34;47.37
52032;BME280;38044;45.148;39.604;2023-12-20T09:27:05;101705.03;;;17.34;49.05
52032;BME280;38044;45.148;39.604;2023-12-20T09:29:31;101689.34;;;17.31;48.61
52032;BME280;38044;45.148;39.604;2023-12-20T09:31:57;101683.78;;;17.14;49.47
52032;BME280;38044;45.148;39.604;2023-12-20T09:34:24;101672.41;;;16.89;48.92
52032;BME280;38044;45.148;39.604;2023-12-20T09:36:51;101675.44;;;16.74;49.60
52032;BME280;38044;45.148;39.604;2023-12-20T09:39:18;101668.22;;;16.56;49.35
52032;BME280;38044;45.148;39.604;2023-12-20T09:42:15;101681.94;;;16.73;50.11
52032;BME280;38044;45.148;39.604;2023-12-20T09:44:42;101675.88;;;16.40;50.68
52032;BME280;38044;45.148;39.604;2023-12-20T09:47:10;101659.72;;;16.21;51.72
52032;BME280;38044;45.148;39.604;2023-12-20T09:49:36;101671.34;;;16.35;51.53
52032;BME280;38044;45.148;39.604;2023-12-20T09:52:04;101652.47;;;16.30;52.13
52032;BME280;38044;45.148;39.604;2023-12-20T09:54:33;101655.88;;;16.36;50.84
52032;BME280;38044;45.148;39.604;2023-12-20T09:56:59;101656.28;;;16.29;51.36
52032;BME280;38044;45.148;39.604;2023-12-20T09:59:25;101647.75;;;16.22;51.89
52032;BME280;38044;45.148;39.604;2023-12-20T10:01:51;101654.47;;;16.38;51.58
52032;BME280;38044;45.148;39.604;2023-12-20T10:04:19;101646.84;;;16.40;51.37
52032;BME280;38044;45.148;39.604;2023-12-20T10:06:45;101648.44;;;16.41;50.85
52032;BME280;38044;45.148;39.604;2023-12-20T10:09:11;101638.41;;;16.28;50.72
52032;BME280;38044;45.148;39.604;2023-12-20T10:11:38;101614.09;;;16.09;50.76
52032;BME280;38044;45.148;39.604;2023-12-20T10:14:05;101625.25;;;16.08;51.35
52032;BME280;38044;45.148;39.604;2023-12-20T10:16:32;101632.38;;;16.04;50.79
52032;BME280;38044;45.148;39.604;2023-12-20T10:18:59;101630.66;;;16.08;51.22
52032;BME280;38044;45.148;39.604;2023-12-20T10:21:27;101625.25;;;16.08;50.89
52032;BME280;38044;45.148;39.604;2023-12-20T10:23:57;101624.34;;;16.12;50.16
52032;BME280;38044;45.148;39.604;2023-12-20T10:26:25;101602.25;;;15.91;49.92
52032;BME280;38044;45.148;39.604;2023-12-20T10:28:54;101616.72;;;16.01;50.49
52032;BME280;38044;45.148;39.604;2023-12-20T10:31:31;101596.44;;;15.98;50.51
52032;BME280;38044;45.148;39.604;2023-12-20T10:33:58;101609.59;;;15.77;50.02
52032;BME280;38044;45.148;39.604;2023-12-20T10:36:29;101601.22;;;15.73;52.01
52032;BME280;38044;45.148;39.604;2023-12-20T10:38:56;101600.84;;;15.80;50.05
52032;BME280;38044;45.148;39.604;2023-12-20T10:41:29;101596.19;;;15.67;49.53
52032;BME280;38044;45.148;39.604;2023-12-20T10:43:59;101598.47;;;15.46;50.68
52032;BME280;38044;45.148;39.604;2023-12-20T10:46:26;101585.25;;;15.12;51.66
52032;BME280;38044;45.148;39.604;2023-12-20T10:48:54;101579.66;;;14.89;52.46
52032;BME280;38044;45.148;39.604;2023-12-20T10:51:21;101563.22;;;14.67;52.87
52032;BME280;38044;45.148;39.604;2023-12-20T10:53:49;101581.34;;;14.66;51.23
52032;BME280;38044;45.148;39.604;2023-12-20T10:56:18;101574.59;;;14.45;51.83
52032;BME280;38044;45.148;39.604;2023-12-20T10:58:45;101581.16;;;14.19;52.44
52032;BME280;38044;45.148;39.604;2023-12-20T11:01:14;101580.84;;;14.02;53.13
52032;BME280;38044;45.148;39.604;2023-12-20T11:03:46;101574.00;;;13.86;52.88
52032;BME280;38044;45.148;39.604;2023-12-20T11:06:42;101566.00;;;13.75;52.73
52032;BME280;38044;45.148;39.604;2023-12-20T11:13:02;101552.38;;;13.33;52.29
52032;BME280;38044;45.148;39.604;2023-12-20T11:15:07;101558.19;;;13.16;51.95
52032;BME280;38044;45.148;39.604;2023-12-20T11:17:33;101556.44;;;13.01;53.54
52032;BME280;38044;45.148;39.604;2023-12-20T11:22:29;101545.81;;;12.80;51.33
52032;BME280;38044;45.148;39.604;2023-12-20T11:25:04;101536.94;;;12.75;51.89
52032;BME280;38044;45.148;39.604;2023-12-20T11:27:30;101555.56;;;12.76;51.80
52032;BME280;38044;45.148;39.604;2023-12-20T11:29:57;101561.47;;;12.73;52.90
52032;BME280;38044;45.148;39.604;2023-12-20T11:37:38;101543.47;;;12.69;54.44
52032;BME280;38044;45.148;39.604;2023-12-20T11:40:11;101543.72;;;12.67;54.53
52032;BME280;38044;45.148;39.604;2023-12-20T11:42:42;101539.97;;;12.68;54.54
52032;BME280;38044;45.148;39.604;2023-12-20T11:45:14;101542.16;;;12.61;55.17
52032;BME280;38044;45.148;39.604;2023-12-20T11:47:43;101545.94;;;12.60;54.50
52032;BME280;38044;45.148;39.604;2023-12-20T11:50:10;101537.88;;;12.55;55.68
52032;BME280;38044;45.148;39.604;2023-12-20T11:52:36;101543.34;;;12.45;56.90
52032;BME280;38044;45.148;39.604;2023-12-20T11:55:02;101544.44;;;12.38;57.74
52032;BME280;38044;45.148;39.604;2023-12-20T11:57:30;101544.53;;;12.28;57.69
52032;BME280;38044;45.148;39.604;2023-12-20T11:59:56;101542.41;;;12.20;58.54
52032;BME280;38044;45.148;39.604;2023-12-20T12:02:22;101523.63;;;12.05;59.00
52032;BME280;38044;45.148;39.604;2023-12-20T12:04:49;101541.91;;;12.13;59.74
52032;BME280;38044;45.148;39.604;2023-12-20T12:07:18;101534.66;;;12.08;59.08
52032;BME280;38044;45.148;39.604;2023-12-20T12:09:47;101538.69;;;12.11;58.30
52032;BME280;38044;45.148;39.604;2023-12-20T12:12:13;101540.31;;;12.07;58.80
52032;BME280;38044;45.148;39.604;2023-12-20T12:14:39;101538.72;;;12.01;59.51
52032;BME280;38044;45.148;39.604;2023-12-20T12:17:12;101534.44;;;11.94;60.21
52032;BME280;38044;45.148;39.604;2023-12-20T12:19:39;101539.84;;;11.89;60.46
52032;BME280;38044;45.148;39.604;2023-12-20T12:22:08;101525.84;;;11.82;60.69
52032;BME280;38044;45.148;39.604;2023-12-20T12:24:46;101532.03;;;11.83;61.48
52032;BME280;38044;45.148;39.604;2023-12-20T12:27:13;101534.50;;;11.74;61.41
52032;BME280;38044;45.148;39.604;2023-12-20T12:29:40;101516.75;;;11.63;60.81
52032;BME280;38044;45.148;39.604;2023-12-20T12:32:09;101528.56;;;11.67;61.11
52032;BME280;38044;45.148;39.604;2023-12-20T12:34:35;101527.53;;;11.58;61.97
52032;BME280;38044;45.148;39.604;2023-12-20T12:37:03;101517.56;;;11.53;62.45
52032;BME280;38044;45.148;39.604;2023-12-20T12:39:29;101506.59;;;11.39;63.29
52032;BME280;38044;45.148;39.604;2023-12-20T12:41:56;101491.00;;;11.31;62.29
52032;BME280;38044;45.148;39.604;2023-12-20T12:44:23;101520.06;;;11.39;63.00
52032;BME280;38044;45.148;39.604;2023-12-20T12:46:52;101511.19;;;11.28;63.38
52032;BME280;38044;45.148;39.604;2023-12-20T12:49:20;101507.16;;;11.26;62.52
52032;BME280;38044;45.148;39.604;2023-12-20T12:51:47;101513.63;;;11.20;63.29
52032;BME280;38044;45.148;39.604;2023-12-20T12:54:13;101495.88;;;11.09;64.08